Terminal Aerodrome Forecast
Issued by NWS

Home | Current Version | Previous Version | Graphics & Text | Print | Product List | Glossary On
Versions: 1 2 3 4 5 6 7 8 9 10 11 12 13 14 15 16 17 18 19 20
000
FTUS43 KOAX 260520
TAFCDR
TAF
KCDR 260520Z 2606/2706 33004KT P6SM OVC015
      TEMPO 2606/2607 3SM BR
     FM260700 33005KT 1SM BR OVC009
     FM261500 02006KT P6SM BKN040
     FM261900 13009KT P6SM BKN080=

USA.gov is the U.S. government's official web portal to all federal, state and local government web resources and services.